Terminal Aerodrome Forecast
Issued by NWS

Home | Current Version | Previous Version | Text Only | Print | Product List | Glossary On
Versions: 1 2 3 4 5 6 7 8 9 10 11 12 13 14 15 16 17 18 19 20 21 22 23 24 25 26 27 28 29 30 31 32 33 34
000
FTUS43 KGRB 021300 AAA
TAFRHI
TAF AMD
KRHI 021328Z 0213/0312 12004KT 1/2SM FG VV002
     FM021400 12004KT 2SM BR SCT004 OVC009
      TEMPO 0214/0215 1/2SM FG BKN003
     FM022200 13003KT 4SM -RA BR OVC009
     FM030100 VRB03KT 1SM -RA BR OVC009
     FM030400 28004KT 2SM -RA BR OVC004
     FM030900 29008KT 4SM BR VCSH BKN007=

USA.gov is the U.S. government's official web portal to all federal, state and local government web resources and services.